Airfield :
LOGIN :

Register | Disclaimer

   EN    FR    IT 

 










Legend :    VFR   Marginal VFR   IFR   Intensive IFR   Very Intensive IFR
Visi :
Ceiling :
>= 8 km
>= 3000ft
5 to 8 km
1000 to 3000 ft
1500m to 5 km
500 to 1000 ft
800 to 1500m
200 to 500 ft
< 800m
< 200 ft
Symbols :   Thunderstorms  Fog  Heavy snow  Heavy precipitations  Wind > 20 kt
SIGMETs :     Misc.  Thunderstorms  Icing  Turbulence  Mountain Waves  Volcanic Ashes






- Airport Elevation : 659 ft
- IATA code : LGG


EBLG - Liège

CURRENT METAR :
  • 120520Z 21013KT 9999 FEW012 BKN014 04/02 Q1002 NOSIG

EXPIRED METARs :
  • 120450Z 20013KT 9999 SCT012 BKN014 04/02 Q1002 NOSIG
  • 120420Z 20012KT 9999 -SHRA FEW012 BKN014 04/02 Q1002 NOSIG
  • 120350Z 20013G25KT 9999 BKN014 05/02 Q1002 NOSIG
  • 120320Z 20012KT 9999 -SHRA BKN014 05/02 Q1002 NOSIG
  • 120250Z 21013KT 9999 BKN016 04/02 Q1003 NOSIG

TAF TAF EBLG
Valid from the 12 at 06:00 until the 13 at 12:00 UTC


120510Z 1206/1312 21009KT 9999 SCT012 SCT018
PROB40
TEMPO 1206/1212 2000 SHRA SHRAGS SCT006 BKN008CB
BECMG 1222/1224 SCT008 BKN012
TEMPO 1300/1310 3000 -RA -RADZ SCT005 BKN007
BECMG 1310/1312 SCT016 SCT030



MET'MAP, your aeronautical weather chart ! - Copyright ORBIFLY December 2007 - Disclaimer

ORBIFLY MET'MAP TEAM :

Programming & Development : Alexandra Zaïnal
Concept & Development : Baudouin d'Aumeries
Co-Development & Prog : Marc-Olivier Méhu
Technical & hardware support : Manuel Goepfert

Contact : metmap@orbifly.com




SOURCES & CREDITS :

   NOAA